Indian River Shores, Florida
Current Conditions -  °F | °C
As of 11:53 AM on Saturday 25 Oct 2014 (Local Time) from KVRB Reporting Station
Few Clouds Few Clouds  
Wind Chill: 78°   Ceiling: Unl
Heat Index: 79°   Visibility: 10mi
Dew Point: 58°   Wind: 14mph
Humidity: 50%   Direction: 350°N
Pressure: 29.96"   Gusts: NA
Location:  27.7066°N, 80.3826°W
Report Text: KVRB 251553Z 35012KT 10SM FEW032 26/14 A2996 RMK AO2 SLP144 T02560144
Loading
Personal Weather Stations






























Interactive Weather Map
Tropical Storm Tracking
New forecast layout! Learn more

10-Day Weather Forecast

Advertisements
Track Severe Weather on mobile